EIKN/NOC METAR and TAF weather

Enter ICAO airport designator
Station Type Date Time Source
EIKN METAR 2019/04/18 19:00 UTC NOAA

EIKN 181900Z 13007KT 9999 FEW040 15/08 Q1023 NOSIG


Station Type Date Time Source
EIKN Decoded METAR 2019/04/18 19:00 UTC NOAA

Connaught, Ireland (EIKN) 53-54-37N 008-49-05W
Apr 18, 2019 - 03:00 PM EDT / 2019.04.18 1900 UTC
Wind: from the SE (130 degrees) at 8 MPH (7 KT):0
Visibility: greater than 7 mile(s):0
Sky conditions: mostly clear
Temperature: 59 F (15 C)
Dew Point: 46 F (8 C)
Relative Humidity: 62%
Pressure (altimeter): 30.21 in. Hg (1023 hPa)
ob: EIKN 181900Z 13007KT 9999 FEW040 15/08 Q1023 NOSIG
cycle: 19

Station Type Date Time Source
EIKN TAF 2019/04/18 18:11 UTC NOAA

TAF EIKN 181700Z 1818/1918 12013KT 9999 FEW020
BECMG 1818/1821 12008KT PROB30
TEMPO 1901/1907 2000 BR
BECMG 1908/1911 15011KT
BECMG 1913/1916 18010KT

Example: see airport list